createdAt,value
2023-01-29T00:02:24.715Z,8.21
2023-01-29T00:07:30.928Z,9.73
2023-01-29T00:12:39.811Z,5.98
2023-01-29T00:17:45.948Z,5.98
2023-01-29T00:22:53.060Z,6.59
2023-01-29T00:28:00.370Z,8.92
2023-01-29T00:33:07.026Z,9.33
2023-01-29T00:38:13.219Z,8.42
2023-01-29T00:43:19.738Z,12.37
2023-01-29T00:48:27.019Z,11.46
2023-01-29T00:53:33.430Z,7.20
2023-01-29T00:58:40.603Z,9.13
2023-01-29T01:03:46.985Z,5.98
2023-01-29T01:08:53.137Z,11.86
2023-01-29T01:13:59.809Z,10.24
2023-01-29T01:19:05.794Z,9.63
2023-01-29T01:24:13.398Z,8.72
2023-01-29T01:29:19.508Z,7.10
2023-01-29T01:34:26.480Z,8.31
2023-01-29T01:39:33.550Z,7.40
2023-01-29T01:44:40.379Z,8.82
2023-01-29T01:49:46.340Z,9.33
2023-01-29T01:54:53.020Z,8.01
2023-01-29T01:59:58.977Z,10.95
2023-01-29T02:05:05.418Z,9.53
2023-01-29T02:10:11.475Z,9.94
2023-01-29T02:15:18.048Z,9.23
2023-01-29T02:20:26.288Z,9.33
2023-01-29T02:25:33.942Z,10.24
2023-01-29T02:30:39.938Z,8.82
2023-01-29T02:35:50.158Z,9.23
2023-01-29T02:40:46.162Z,10.24
2023-01-29T02:45:53.051Z,7.00
2023-01-29T02:51:00.490Z,7.91
2023-01-29T02:56:07.462Z,5.98
2023-01-29T03:01:16.055Z,8.11
2023-01-29T03:06:22.241Z,11.76
2023-01-29T03:11:28.673Z,9.63
2023-01-29T03:16:35.765Z,10.34
2023-01-29T03:21:42.419Z,7.71
2023-01-29T03:26:48.578Z,9.43
2023-01-29T03:31:55.517Z,9.73
2023-01-29T03:37:01.543Z,6.59
2023-01-29T03:42:09.070Z,6.39
2023-01-29T03:47:15.395Z,9.94
2023-01-29T03:52:21.587Z,7.00
2023-01-29T03:57:27.838Z,5.98
2023-01-29T04:02:34.151Z,6.39
2023-01-29T04:07:49.968Z,8.92
2023-01-29T04:12:46.489Z,7.30
2023-01-29T04:17:53.567Z,6.19
2023-01-29T04:23:01.584Z,8.11
2023-01-29T04:28:08.052Z,8.82
2023-01-29T04:33:16.099Z,9.43
2023-01-29T04:38:22.868Z,8.72
2023-01-29T04:43:29.370Z,6.19
2023-01-29T04:48:36.672Z,8.31
2023-01-29T04:53:46.950Z,10.44
2023-01-29T04:58:43.161Z,8.62
2023-01-29T05:03:49.288Z,7.10
2023-01-29T05:08:55.949Z,7.40
2023-01-29T05:14:02.241Z,7.61
2023-01-29T05:19:09.136Z,9.13
2023-01-29T05:24:15.310Z,7.30
2023-01-29T05:29:21.989Z,8.62
2023-01-29T05:34:28.172Z,7.40
2023-01-29T05:39:36.688Z,8.42
2023-01-29T05:45:00.926Z,6.39
2023-01-29T05:49:47.779Z,6.19
2023-01-29T05:54:53.876Z,7.40
2023-01-29T06:00:01.599Z,7.00
2023-01-29T06:05:07.990Z,6.19
2023-01-29T06:10:14.916Z,7.40
2023-01-29T06:15:20.610Z,6.19
2023-01-29T06:20:27.004Z,7.10
2023-01-29T06:25:33.489Z,8.21
2023-01-29T06:30:40.091Z,9.94
2023-01-29T06:35:46.098Z,7.61
2023-01-29T06:40:52.696Z,8.62
2023-01-29T06:45:59.707Z,5.98
2023-01-29T06:51:06.202Z,6.90
2023-01-29T06:56:13.565Z,7.30
2023-01-29T07:01:35.022Z,7.40
2023-01-29T07:06:31.873Z,9.33
2023-01-29T07:11:38.606Z,5.98
2023-01-29T07:16:46.257Z,6.49
2023-01-29T07:21:54.171Z,9.63
2023-01-29T07:27:00.148Z,8.11
2023-01-29T07:32:07.099Z,7.61
2023-01-29T07:37:14.188Z,6.19
2023-01-29T07:42:20.456Z,8.21
2023-01-29T07:47:27.289Z,5.88
2023-01-29T07:52:33.848Z,7.81
2023-01-29T07:57:41.750Z,7.91
2023-01-29T08:02:48.048Z,7.40
2023-01-29T08:08:06.189Z,5.98
2023-01-29T08:13:00.910Z,5.98
2023-01-29T08:18:07.375Z,6.29
2023-01-29T08:23:14.174Z,6.39
2023-01-29T08:28:21.470Z,5.37
2023-01-29T08:33:38.347Z,6.49
2023-01-29T08:38:34.371Z,6.19
2023-01-29T08:43:41.157Z,5.98
2023-01-29T08:48:47.589Z,6.90
2023-01-29T08:53:53.827Z,7.40
2023-01-29T08:59:00.119Z,9.84
2023-01-29T09:04:07.053Z,6.08
2023-01-29T09:09:13.231Z,7.91
2023-01-29T09:14:20.079Z,8.11
2023-01-29T09:19:26.411Z,7.30
2023-01-29T09:24:33.111Z,6.59
2023-01-29T09:29:39.334Z,5.98
2023-01-29T09:34:45.458Z,6.90
2023-01-29T09:39:51.935Z,7.71
2023-01-29T09:44:58.474Z,5.68
2023-01-29T09:50:04.720Z,7.50
2023-01-29T09:55:11.441Z,6.19
2023-01-29T10:00:19.426Z,5.98
2023-01-29T10:05:27.019Z,6.90
2023-01-29T10:10:33.062Z,6.39
2023-01-29T10:15:40.620Z,7.00
2023-01-29T10:20:51.932Z,5.98
2023-01-29T10:25:47.953Z,6.08
2023-01-29T10:30:54.645Z,7.00
2023-01-29T10:36:00.724Z,6.49
2023-01-29T10:41:07.342Z,4.97
2023-01-29T10:46:14.673Z,4.56
2023-01-29T10:51:21.211Z,5.78
2023-01-29T10:56:28.412Z,5.98
2023-01-29T11:01:38.955Z,4.16
2023-01-29T11:06:34.984Z,5.17
2023-01-29T11:11:41.380Z,2.03
2023-01-29T11:16:47.592Z,4.36
2023-01-29T11:21:54.142Z,5.88
2023-01-29T11:27:00.436Z,3.35
2023-01-29T11:32:07.170Z,4.97
2023-01-29T11:37:13.243Z,5.88
2023-01-29T11:42:19.715Z,4.77
2023-01-29T11:47:26.749Z,5.68
2023-01-29T11:52:34.624Z,3.35
2023-01-29T11:57:42.112Z,4.06
2023-01-29T12:02:49.572Z,3.04
2023-01-29T12:07:55.930Z,5.27
2023-01-29T12:13:09.205Z,0.30
2023-01-29T12:18:08.103Z,2.84
2023-01-29T12:23:14.442Z,3.55
2023-01-29T12:28:20.971Z,1.72
2023-01-29T12:33:28.457Z,0.00
2023-01-29T12:38:35.573Z,1.93
2023-01-29T12:43:42.208Z,4.77
2023-01-29T12:48:48.396Z,3.24
2023-01-29T12:53:58.523Z,4.06
2023-01-29T12:58:55.903Z,3.65
2023-01-29T13:04:01.385Z,3.45
2023-01-29T13:09:07.653Z,1.52
2023-01-29T13:14:14.834Z,2.74
2023-01-29T13:19:21.771Z,0.41
2023-01-29T13:24:27.943Z,6.29
2023-01-29T13:29:34.782Z,2.23
2023-01-29T13:34:41.193Z,0.41
2023-01-29T13:39:47.780Z,0.81
2023-01-29T13:44:54.109Z,3.82
2023-01-29T13:50:00.492Z,4.66
2023-01-29T13:55:06.872Z,1.01
2023-01-29T14:00:14.333Z,0.71
2023-01-29T14:05:20.833Z,1.42
2023-01-29T14:10:27.812Z,4.16
2023-01-29T14:15:33.796Z,4.06
2023-01-29T14:20:46.243Z,0.61
2023-01-29T14:25:45.901Z,0.61
2023-01-29T14:30:52.696Z,5.58
2023-01-29T14:36:01.434Z,1.22
2023-01-29T14:41:07.386Z,0.71
2023-01-29T14:46:13.196Z,1.72
2023-01-29T14:51:20.806Z,2.94
2023-01-29T14:56:28.892Z,2.94
2023-01-29T15:01:35.872Z,1.52
2023-01-29T15:06:41.898Z,0.00
2023-01-29T15:11:49.032Z,2.74
2023-01-29T15:16:58.801Z,2.84
2023-01-29T15:22:05.789Z,2.33
2023-01-29T15:27:15.935Z,3.14
2023-01-29T15:32:21.854Z,3.14
2023-01-29T15:37:28.235Z,2.03
2023-01-29T15:42:35.050Z,4.46
2023-01-29T15:47:42.473Z,5.98
2023-01-29T15:52:49.166Z,6.19
2023-01-29T15:57:55.936Z,5.98
2023-01-29T16:03:01.771Z,7.91
